createdAt,value
2018-11-07T00:00:39.781Z,98406.00
2018-11-07T00:01:43.489Z,98417.00
2018-11-07T00:02:47.016Z,98409.00
2018-11-07T00:03:50.838Z,98414.00
2018-11-07T00:04:54.470Z,98426.00
2018-11-07T00:05:58.207Z,98425.00
2018-11-07T00:07:01.900Z,98430.00
2018-11-07T00:08:05.560Z,98436.00
2018-11-07T00:09:09.326Z,98437.00
2018-11-07T00:10:13.226Z,98441.00
2018-11-07T00:11:16.883Z,98443.00
2018-11-07T00:12:20.654Z,98446.00
2018-11-07T00:13:24.239Z,98445.00
2018-11-07T00:14:27.750Z,98444.00
2018-11-07T00:15:31.123Z,98454.00
2018-11-07T00:16:36.025Z,98461.00
2018-11-07T00:17:42.370Z,98452.00
2018-11-07T00:18:45.935Z,98458.00
2018-11-07T00:19:49.921Z,98462.00
2018-11-07T00:20:53.396Z,98471.00
2018-11-07T00:21:56.911Z,98474.00
2018-11-07T00:23:00.486Z,98475.00
2018-11-07T00:24:03.974Z,98477.00
2018-11-07T00:25:07.430Z,98477.00
2018-11-07T00:26:10.901Z,98481.00
2018-11-07T00:27:14.357Z,98477.00
2018-11-07T00:28:17.849Z,98476.00
2018-11-07T00:29:21.522Z,98468.00
2018-11-07T00:30:25.303Z,98465.00
2018-11-07T00:31:28.981Z,98460.00
2018-11-07T00:32:32.563Z,98466.00
2018-11-07T00:33:36.366Z,98472.00
2018-11-07T00:34:40.093Z,98480.00
2018-11-07T00:35:43.978Z,98488.00
2018-11-07T00:36:47.553Z,98468.00
2018-11-07T00:37:50.966Z,98476.00
2018-11-07T00:38:54.652Z,98471.00
2018-11-07T00:39:58.214Z,98475.00
2018-11-07T00:41:02.017Z,98478.00
2018-11-07T00:42:05.617Z,98481.00
2018-11-07T00:43:09.327Z,98483.00
2018-11-07T00:44:13.001Z,98475.00
2018-11-07T00:45:16.622Z,98484.00
2018-11-07T00:46:20.407Z,98483.00
2018-11-07T00:47:23.915Z,98493.00
2018-11-07T00:48:27.864Z,98474.00
2018-11-07T00:49:31.592Z,98482.00
2018-11-07T00:50:35.319Z,98478.00
2018-11-07T00:51:38.879Z,98471.00
2018-11-07T00:52:42.784Z,98469.00
2018-11-07T00:53:46.376Z,98470.00
2018-11-07T00:54:50.060Z,98467.00
2018-11-07T00:55:54.462Z,98466.00
2018-11-07T00:56:58.032Z,98455.00
2018-11-07T00:58:01.721Z,98454.00
2018-11-07T01:00:18.592Z,98462.00
2018-11-07T01:01:23.051Z,98454.00
2018-11-07T01:02:26.386Z,98466.00
2018-11-07T01:03:29.925Z,98459.00
2018-11-07T01:04:33.378Z,98468.00
2018-11-07T01:05:37.131Z,98463.00
2018-11-07T01:06:40.688Z,98468.00
2018-11-07T01:07:45.215Z,98471.00
2018-11-07T01:08:50.615Z,98473.00
2018-11-07T01:09:54.383Z,98475.00
2018-11-07T01:10:58.264Z,98481.00
2018-11-07T01:12:02.647Z,98482.00
2018-11-07T01:13:06.238Z,98473.00
2018-11-07T01:14:12.306Z,98474.00
2018-11-07T01:15:15.922Z,98470.00
2018-11-07T01:16:20.188Z,98470.00
2018-11-07T01:17:23.923Z,98469.00
2018-11-07T01:18:28.031Z,98461.00
2018-11-07T01:19:31.407Z,98467.00
2018-11-07T01:20:34.986Z,98464.00
2018-11-07T01:21:38.781Z,98467.00
2018-11-07T01:22:42.357Z,98465.00
2018-11-07T01:23:46.147Z,98463.00
2018-11-07T01:24:53.576Z,98469.00
2018-11-07T01:25:57.223Z,98469.00
2018-11-07T01:27:00.753Z,98473.00
2018-11-07T01:28:05.168Z,98475.00
2018-11-07T01:29:13.735Z,98467.00
2018-11-07T01:30:17.517Z,98476.00
2018-11-07T01:31:25.993Z,98481.00
2018-11-07T01:32:29.941Z,98481.00
2018-11-07T01:33:35.068Z,98482.00
2018-11-07T01:34:38.829Z,98484.00
2018-11-07T01:35:43.459Z,98481.00
2018-11-07T01:36:47.120Z,98486.00
2018-11-07T01:37:50.957Z,98482.00
2018-11-07T01:38:54.589Z,98484.00
2018-11-07T01:39:58.173Z,98485.00
2018-11-07T01:41:03.856Z,98485.00
2018-11-07T01:42:09.024Z,98481.00
2018-11-07T01:43:12.553Z,98488.00
2018-11-07T01:44:15.978Z,98485.00
2018-11-07T01:45:22.301Z,98493.00
2018-11-07T01:47:34.856Z,98495.00
2018-11-07T01:48:41.058Z,98494.00
2018-11-07T01:49:47.580Z,98495.00
2018-11-07T01:50:52.711Z,98499.00
2018-11-07T01:51:58.754Z,98487.00
2018-11-07T01:53:03.811Z,98495.00
2018-11-07T01:54:09.267Z,98495.00
2018-11-07T01:55:14.003Z,98495.00
2018-11-07T01:58:39.122Z,98440.00
2018-11-07T02:46:22.965Z,98639.00
2018-11-07T02:47:30.732Z,98637.00
2018-11-07T02:48:35.227Z,98643.00
2018-11-07T02:49:40.238Z,98631.00
2018-11-07T02:50:45.056Z,98644.00
2018-11-07T02:51:49.892Z,98643.00
2018-11-07T02:52:55.044Z,98643.00
2018-11-07T02:53:58.975Z,98641.00
2018-11-07T02:55:02.490Z,98637.00
2018-11-07T02:56:06.389Z,98642.00
2018-11-07T02:57:09.998Z,98639.00
2018-11-07T02:58:13.967Z,98645.00
2018-11-07T02:59:19.049Z,98650.00
2018-11-07T03:00:23.341Z,98649.00
2018-11-07T03:01:27.009Z,98647.00
2018-11-07T03:02:30.928Z,98651.00
2018-11-07T03:03:34.401Z,98647.00
2018-11-07T03:04:38.791Z,98645.00
2018-11-07T03:05:42.124Z,98637.00
2018-11-07T03:06:47.802Z,98646.00
2018-11-07T03:07:52.212Z,98642.00
2018-11-07T03:08:57.174Z,98641.00
2018-11-07T03:10:01.791Z,98644.00
2018-11-07T03:11:07.043Z,98645.00
2018-11-07T03:12:10.698Z,98646.00
2018-11-07T03:13:14.575Z,98639.00
2018-11-07T03:14:19.337Z,98647.00
2018-11-07T03:15:24.508Z,98651.00
2018-11-07T03:16:29.235Z,98654.00
2018-11-07T03:17:33.298Z,98655.00
2018-11-07T03:18:37.572Z,98658.00
2018-11-07T03:19:41.201Z,98655.00
2018-11-07T03:20:44.787Z,98657.00
2018-11-07T03:21:51.006Z,98658.00
2018-11-07T03:22:54.704Z,98655.00
2018-11-07T03:23:58.297Z,98664.00
2018-11-07T03:25:01.999Z,98661.00
2018-11-07T03:26:06.463Z,98670.00
2018-11-07T03:27:09.862Z,98668.00
2018-11-07T03:28:13.319Z,98672.00
2018-11-07T03:29:17.115Z,98670.00
2018-11-07T03:30:20.762Z,98669.00
2018-11-07T03:31:24.550Z,98674.00
2018-11-07T03:32:27.912Z,98664.00
2018-11-07T03:33:31.361Z,98678.00
2018-11-07T03:34:35.136Z,98675.00
2018-11-07T03:35:39.368Z,98675.00
2018-11-07T03:36:42.987Z,98670.00
2018-11-07T03:37:46.378Z,98665.00
2018-11-07T03:38:50.007Z,98662.00
2018-11-07T03:39:53.540Z,98657.00
2018-11-07T03:40:57.120Z,98651.00
2018-11-07T03:42:00.965Z,98613.00
2018-11-07T03:43:04.451Z,98656.00
2018-11-07T03:44:08.442Z,98655.00
2018-11-07T04:39:21.325Z,98663.00
2018-11-07T04:40:24.810Z,98657.00
2018-11-07T04:41:28.212Z,98656.00
2018-11-07T04:42:31.619Z,98655.00
2018-11-07T04:43:35.194Z,98645.00
2018-11-07T04:44:38.614Z,98644.00
2018-11-07T04:45:42.379Z,98649.00
2018-11-07T04:46:45.839Z,98645.00
2018-11-07T04:47:49.218Z,98632.00
2018-11-07T04:48:52.946Z,98637.00
2018-11-07T04:49:56.519Z,98636.00
2018-11-07T04:51:00.317Z,98630.00
2018-11-07T04:52:04.000Z,98622.00
2018-11-07T04:53:07.801Z,98625.00
2018-11-07T04:54:11.395Z,98624.00
2018-11-07T04:55:14.781Z,98628.00
2018-11-07T04:56:18.494Z,98634.00
2018-11-07T04:57:21.971Z,98630.00
2018-11-07T04:58:25.768Z,98633.00
2018-11-07T04:59:29.352Z,98634.00
2018-11-07T05:00:32.797Z,98635.00
2018-11-07T05:01:36.551Z,98628.00
2018-11-07T05:02:40.028Z,98631.00
2018-11-07T05:03:43.506Z,98634.00
2018-11-07T05:04:47.222Z,98638.00
2018-11-07T05:05:50.702Z,98634.00
2018-11-07T05:06:54.152Z,98629.00
2018-11-07T05:07:57.792Z,98642.00
2018-11-07T05:09:01.262Z,98630.00
2018-11-07T05:10:04.713Z,98642.00
2018-11-07T05:11:08.237Z,98648.00
2018-11-07T05:12:11.918Z,98653.00
2018-11-07T05:13:15.637Z,98654.00
2018-11-07T05:14:19.207Z,98646.00
2018-11-07T05:15:22.675Z,98651.00
2018-11-07T05:16:26.420Z,98651.00
2018-11-07T05:17:29.942Z,98654.00
2018-11-07T05:18:33.592Z,98649.00
2018-11-07T05:19:37.231Z,98657.00
2018-11-07T05:20:41.071Z,98651.00
2018-11-07T05:21:44.689Z,98651.00
2018-11-07T05:22:48.042Z,98657.00
2018-11-07T05:23:51.068Z,98665.00
2018-11-07T05:24:54.719Z,98660.00
2018-11-07T05:25:58.438Z,98672.00
2018-11-07T05:27:01.790Z,98672.00
2018-11-07T05:28:05.517Z,98691.00
2018-11-07T05:29:08.977Z,98693.00
2018-11-07T05:30:13.189Z,98694.00
2018-11-07T05:31:16.680Z,98706.00
2018-11-07T05:32:20.394Z,98702.00
2018-11-07T05:33:23.982Z,98695.00
2018-11-07T05:34:27.754Z,98716.00
2018-11-07T05:35:30.739Z,98719.00
2018-11-07T05:36:34.315Z,98726.00
2018-11-07T05:37:37.803Z,98731.00
2018-11-07T05:38:41.553Z,98726.00
2018-11-07T05:39:45.422Z,98730.00
2018-11-07T05:40:48.638Z,98735.00
2018-11-07T05:41:52.170Z,98729.00
2018-11-07T05:42:56.120Z,98733.00
2018-11-07T05:43:59.668Z,98736.00
2018-11-07T05:45:03.120Z,98741.00
2018-11-07T05:46:06.860Z,98737.00
2018-11-07T05:47:10.434Z,98752.00
2018-11-07T05:48:13.903Z,98750.00
2018-11-07T05:49:17.555Z,98750.00
2018-11-07T05:50:21.032Z,98748.00
2018-11-07T05:51:24.926Z,98749.00
2018-11-07T05:52:28.512Z,98759.00
2018-11-07T05:53:32.320Z,98755.00
2018-11-07T05:54:35.917Z,98753.00
2018-11-07T05:55:39.338Z,98752.00
2018-11-07T05:56:42.998Z,98752.00
2018-11-07T05:57:46.559Z,98757.00
2018-11-07T05:58:50.353Z,98753.00
2018-11-07T05:59:53.937Z,98755.00
2018-11-07T06:00:57.336Z,98767.00
2018-11-07T06:02:00.926Z,98756.00
2018-11-07T06:03:04.611Z,98757.00
2018-11-07T06:04:08.411Z,98764.00
2018-11-07T06:05:12.833Z,98769.00
2018-11-07T06:06:16.448Z,98773.00
2018-11-07T06:07:19.816Z,98769.00
2018-11-07T06:08:23.490Z,98776.00
2018-11-07T06:09:27.092Z,98775.00
2018-11-07T06:10:30.743Z,98777.00
2018-11-07T06:11:34.506Z,98773.00
2018-11-07T06:12:38.031Z,98775.00
2018-11-07T06:13:41.890Z,98774.00
2018-11-07T06:14:45.513Z,98780.00
2018-11-07T06:15:49.266Z,98776.00
2018-11-07T06:16:52.827Z,98779.00
2018-11-07T06:17:56.599Z,98772.00
2018-11-07T06:19:00.119Z,98782.00
2018-11-07T06:20:03.572Z,98780.00
2018-11-07T06:21:07.407Z,98779.00
2018-11-07T06:22:11.197Z,98781.00
2018-11-07T06:23:14.719Z,98782.00
2018-11-07T06:24:18.566Z,98777.00
2018-11-07T06:25:22.048Z,98781.00
2018-11-07T06:26:25.873Z,98782.00
2018-11-07T06:27:29.354Z,98780.00
2018-11-07T06:28:32.707Z,98780.00
2018-11-07T06:29:35.893Z,98776.00
2018-11-07T06:30:39.928Z,98772.00
2018-11-07T06:31:43.384Z,98772.00
2018-11-07T06:32:47.139Z,98772.00
2018-11-07T06:33:50.764Z,98773.00
2018-11-07T06:34:54.602Z,98774.00
2018-11-07T06:35:58.189Z,98778.00
2018-11-07T06:37:01.896Z,98777.00
2018-11-07T06:38:05.475Z,98775.00
2018-11-07T06:39:08.882Z,98773.00
2018-11-07T06:40:13.437Z,98772.00
2018-11-07T06:41:17.186Z,98771.00
2018-11-07T06:42:20.815Z,98760.00
2018-11-07T06:43:24.261Z,98754.00
2018-11-07T06:44:27.905Z,98749.00
2018-11-07T06:45:31.533Z,98751.00
2018-11-07T06:46:35.334Z,98747.00
2018-11-07T06:47:39.045Z,98743.00
2018-11-07T06:48:42.670Z,98736.00
2018-11-07T06:49:46.448Z,98745.00
2018-11-07T06:50:50.035Z,98738.00
2018-11-07T06:51:53.802Z,98740.00
2018-11-07T06:52:56.836Z,98738.00
2018-11-07T06:54:00.467Z,98734.00
2018-11-07T06:55:03.924Z,98737.00
2018-11-07T06:56:07.678Z,98730.00
2018-11-07T06:57:11.165Z,98722.00
2018-11-07T06:58:15.055Z,98718.00
2018-11-07T06:59:18.634Z,98712.00
2018-11-07T07:00:22.443Z,98719.00
2018-11-07T07:01:26.070Z,98713.00
2018-11-07T07:02:29.917Z,98713.00
2018-11-07T07:03:33.516Z,98715.00
2018-11-07T07:04:36.949Z,98711.00
2018-11-07T07:05:40.649Z,98704.00
2018-11-07T07:06:44.189Z,98717.00
2018-11-07T07:07:47.808Z,98717.00
2018-11-07T07:08:51.348Z,98716.00
2018-11-07T07:09:54.831Z,98718.00
2018-11-07T07:10:58.671Z,98725.00
2018-11-07T07:12:02.241Z,98720.00
2018-11-07T07:13:06.033Z,98715.00
2018-11-07T07:14:09.626Z,98719.00
2018-11-07T07:15:14.555Z,98717.00
2018-11-07T07:16:18.277Z,98717.00
2018-11-07T07:17:21.773Z,98714.00
2018-11-07T07:18:25.630Z,98708.00
2018-11-07T07:19:29.042Z,98724.00
2018-11-07T07:20:32.477Z,98713.00
2018-11-07T07:21:36.324Z,98712.00
2018-11-07T07:22:40.133Z,98714.00
2018-11-07T07:23:43.859Z,98711.00
2018-11-07T07:24:47.399Z,98716.00
2018-11-07T07:25:51.181Z,98710.00
2018-11-07T07:26:54.802Z,98721.00
2018-11-07T07:27:58.671Z,98712.00
2018-11-07T07:29:02.326Z,98716.00
2018-11-07T07:30:06.980Z,98713.00
2018-11-07T07:31:10.914Z,98716.00
2018-11-07T07:32:14.515Z,98710.00
2018-11-07T07:33:18.458Z,98713.00
2018-11-07T07:34:21.978Z,98708.00
2018-11-07T07:35:25.475Z,98708.00
2018-11-07T07:36:29.242Z,98710.00
2018-11-07T07:37:32.535Z,98713.00
2018-11-07T07:38:36.007Z,98715.00
2018-11-07T07:39:39.703Z,98716.00
2018-11-07T07:40:43.214Z,98720.00
2018-11-07T07:41:46.924Z,98720.00
2018-11-07T07:42:50.539Z,98719.00
2018-11-07T07:43:54.399Z,98725.00
2018-11-07T07:44:57.862Z,98717.00
2018-11-07T07:46:01.558Z,98718.00
2018-11-07T07:47:04.986Z,98717.00
2018-11-07T07:48:08.618Z,98729.00
2018-11-07T07:49:12.395Z,98715.00
2018-11-07T07:50:17.918Z,98724.00
2018-11-07T07:51:21.399Z,98725.00
2018-11-07T07:52:25.055Z,98721.00
2018-11-07T07:53:28.451Z,98722.00
2018-11-07T07:54:32.155Z,98711.00
2018-11-07T07:55:35.710Z,98712.00
2018-11-07T07:56:39.110Z,98717.00
2018-11-07T07:57:43.204Z,98714.00
2018-11-07T07:58:46.609Z,98723.00
2018-11-07T07:59:50.422Z,98722.00
2018-11-07T08:00:54.045Z,98725.00
2018-11-07T08:01:57.779Z,98723.00
2018-11-07T08:03:01.373Z,98721.00
2018-11-07T08:04:05.167Z,98720.00
2018-11-07T08:05:08.747Z,98726.00
2018-11-07T08:06:12.147Z,98732.00
2018-11-07T08:07:15.755Z,98729.00
2018-11-07T08:08:19.228Z,98720.00
2018-11-07T08:09:22.483Z,98722.00
2018-11-07T08:10:26.118Z,98727.00
2018-11-07T08:11:29.789Z,98729.00
2018-11-07T08:12:33.586Z,98725.00
2018-11-07T08:13:37.241Z,98737.00
2018-11-07T08:14:41.079Z,98731.00
2018-11-07T08:15:44.670Z,98725.00
2018-11-07T08:16:48.047Z,98724.00
2018-11-07T08:17:51.771Z,98731.00
2018-11-07T08:18:55.331Z,98729.00
2018-11-07T08:20:04.783Z,98733.00
2018-11-07T08:21:08.601Z,98736.00
2018-11-07T08:22:12.181Z,98733.00
2018-11-07T08:23:16.179Z,98739.00
2018-11-07T08:24:19.672Z,98729.00
2018-11-07T08:25:23.239Z,98737.00
2018-11-07T08:26:26.843Z,98740.00
2018-11-07T08:27:30.327Z,98753.00
2018-11-07T08:28:34.012Z,98756.00
2018-11-07T08:29:37.601Z,98766.00
2018-11-07T08:30:41.038Z,98765.00
2018-11-07T08:31:44.716Z,98779.00
2018-11-07T08:32:48.287Z,98779.00
2018-11-07T08:33:52.308Z,98783.00
2018-11-07T08:34:55.840Z,98794.00
2018-11-07T08:35:59.475Z,98782.00
2018-11-07T08:37:02.945Z,98792.00
2018-11-07T08:38:06.561Z,98794.00
2018-11-07T08:39:10.617Z,98791.00
2018-11-07T08:40:15.318Z,98790.00
2018-11-07T08:41:18.946Z,98794.00
2018-11-07T08:42:22.377Z,98792.00
2018-11-07T08:44:34.246Z,98792.00
2018-11-07T08:45:37.769Z,98798.00
2018-11-07T08:46:41.410Z,98797.00
2018-11-07T08:47:45.621Z,98798.00
2018-11-07T08:48:49.341Z,98797.00
2018-11-07T08:49:53.007Z,98798.00
2018-11-07T08:50:56.827Z,98805.00
2018-11-07T08:52:00.352Z,98800.00
2018-11-07T08:53:04.185Z,98805.00
2018-11-07T08:54:07.766Z,98798.00
2018-11-07T08:55:13.151Z,98806.00
2018-11-07T08:56:16.799Z,98809.00
2018-11-07T08:57:21.306Z,98807.00
2018-11-07T08:58:25.110Z,98810.00
2018-11-07T08:59:28.693Z,98822.00
2018-11-07T09:00:32.082Z,98817.00
2018-11-07T09:02:39.265Z,98824.00
2018-11-07T09:03:42.647Z,98828.00
2018-11-07T09:04:46.371Z,98822.00
2018-11-07T09:05:49.862Z,98821.00
2018-11-07T09:06:53.746Z,98821.00
2018-11-07T09:07:57.328Z,98825.00
2018-11-07T09:09:00.755Z,98816.00
2018-11-07T09:10:04.448Z,98813.00
2018-11-07T09:11:07.924Z,98816.00
2018-11-07T09:12:11.707Z,98813.00
2018-11-07T09:13:15.450Z,98821.00
2018-11-07T09:14:18.974Z,98817.00
2018-11-07T09:15:23.386Z,98817.00
2018-11-07T09:16:26.905Z,98822.00
2018-11-07T09:17:30.460Z,98818.00
2018-11-07T09:18:34.945Z,98818.00
2018-11-07T09:19:38.934Z,98821.00
2018-11-07T09:20:42.559Z,98822.00
2018-11-07T09:21:45.962Z,98826.00
2018-11-07T09:22:49.683Z,98826.00
2018-11-07T09:23:53.307Z,98827.00
2018-11-07T09:24:57.043Z,98827.00
2018-11-07T09:26:00.618Z,98827.00
2018-11-07T09:27:03.984Z,98826.00
2018-11-07T09:28:07.834Z,98825.00
2018-11-07T09:29:12.285Z,98820.00
2018-11-07T09:30:17.829Z,98824.00
2018-11-07T09:31:21.491Z,98830.00
2018-11-07T09:32:25.069Z,98825.00
2018-11-07T09:33:28.864Z,98820.00
2018-11-07T09:34:32.420Z,98825.00
2018-11-07T09:35:35.883Z,98821.00
2018-11-07T09:36:39.613Z,98814.00
2018-11-07T09:37:43.210Z,98813.00
2018-11-07T09:38:47.003Z,98807.00
2018-11-07T09:39:50.967Z,98807.00
2018-11-07T09:40:54.798Z,98805.00
2018-11-07T09:41:58.379Z,98807.00
2018-11-07T09:43:02.288Z,98793.00
2018-11-07T09:44:06.050Z,98803.00
2018-11-07T09:45:10.040Z,98800.00
2018-11-07T09:46:13.122Z,98800.00
2018-11-07T09:47:16.482Z,98797.00
2018-11-07T09:48:20.338Z,98790.00
2018-11-07T09:49:23.776Z,98792.00
2018-11-07T09:50:27.338Z,98782.00
2018-11-07T09:51:30.966Z,98790.00
2018-11-07T09:52:34.645Z,98794.00
2018-11-07T09:53:38.219Z,98786.00
2018-11-07T09:54:41.931Z,98792.00
2018-11-07T09:55:45.604Z,98789.00
2018-11-07T09:56:49.407Z,98790.00
2018-11-07T09:57:52.984Z,98792.00
2018-11-07T09:58:56.872Z,98784.00
2018-11-07T10:00:00.618Z,98789.00
2018-11-07T10:01:04.356Z,98786.00
2018-11-07T10:02:08.074Z,98789.00
2018-11-07T10:03:11.973Z,98790.00
2018-11-07T10:04:16.172Z,98777.00
2018-11-07T10:05:20.825Z,98777.00
2018-11-07T10:06:24.394Z,98779.00
2018-11-07T10:07:27.465Z,98775.00
2018-11-07T10:08:31.003Z,98775.00
2018-11-07T10:09:34.748Z,98780.00
2018-11-07T10:10:38.302Z,98770.00
2018-11-07T10:11:41.815Z,98768.00
2018-11-07T10:12:45.814Z,98774.00
2018-11-07T10:13:49.215Z,98774.00
2018-11-07T10:14:52.645Z,98780.00
2018-11-07T10:15:56.015Z,98774.00
2018-11-07T10:16:59.521Z,98779.00
2018-11-07T10:18:02.666Z,98775.00
2018-11-07T10:19:06.054Z,98777.00
2018-11-07T10:20:09.741Z,98779.00
2018-11-07T10:21:13.379Z,98772.00
2018-11-07T10:22:17.104Z,98776.00
2018-11-07T10:23:20.586Z,98787.00
2018-11-07T10:24:24.051Z,98788.00
2018-11-07T10:25:27.810Z,98793.00
2018-11-07T10:26:31.390Z,98788.00
2018-11-07T10:27:35.430Z,98798.00
2018-11-07T10:28:39.038Z,98801.00
2018-11-07T10:29:42.830Z,98798.00
2018-11-07T10:30:46.273Z,98801.00
2018-11-07T10:31:50.138Z,98803.00
2018-11-07T10:32:54.304Z,98796.00
2018-11-07T10:33:57.936Z,98802.00
2018-11-07T10:35:02.608Z,98805.00
2018-11-07T10:36:06.038Z,98801.00
2018-11-07T10:37:09.755Z,98803.00
2018-11-07T10:38:14.477Z,98805.00
2018-11-07T10:39:17.960Z,98805.00
2018-11-07T10:40:23.659Z,98800.00
2018-11-07T10:41:27.148Z,98800.00
2018-11-07T10:42:30.887Z,98800.00
2018-11-07T10:43:34.375Z,98803.00
2018-11-07T10:44:37.980Z,98804.00
2018-11-07T10:45:41.563Z,98799.00
2018-11-07T10:46:45.043Z,98805.00
2018-11-07T10:47:49.227Z,98806.00
2018-11-07T10:48:52.629Z,98809.00
2018-11-07T10:49:55.786Z,98802.00
2018-11-07T10:50:59.425Z,98807.00
2018-11-07T10:52:03.023Z,98805.00
2018-11-07T10:53:06.920Z,98807.00
2018-11-07T10:54:10.488Z,98808.00
2018-11-07T10:55:14.989Z,98804.00
2018-11-07T10:56:18.775Z,98807.00
2018-11-07T10:57:22.485Z,98806.00
2018-11-07T10:58:26.366Z,98807.00
2018-11-07T10:59:29.955Z,98815.00
2018-11-07T11:00:37.659Z,98810.00
2018-11-07T11:01:45.746Z,98810.00
2018-11-07T11:03:52.074Z,98816.00
2018-11-07T11:04:55.719Z,98822.00
2018-11-07T11:05:59.137Z,98807.00
2018-11-07T11:07:02.820Z,98818.00
2018-11-07T11:08:06.387Z,98817.00
2018-11-07T11:09:10.396Z,98813.00
2018-11-07T11:10:14.475Z,98822.00
2018-11-07T11:11:18.108Z,98829.00
2018-11-07T11:12:21.631Z,98833.00
2018-11-07T11:13:25.378Z,98838.00
2018-11-07T11:14:28.836Z,98850.00
2018-11-07T11:15:32.223Z,98853.00
2018-11-07T11:16:35.880Z,98850.00
2018-11-07T11:17:39.524Z,98856.00
2018-11-07T11:18:43.203Z,98862.00
2018-11-07T11:19:46.686Z,98858.00
2018-11-07T11:20:50.106Z,98861.00
2018-11-07T11:21:53.670Z,98861.00
2018-11-07T11:22:57.257Z,98865.00
2018-11-07T11:24:00.651Z,98867.00
2018-11-07T11:25:04.374Z,98865.00
2018-11-07T11:26:08.037Z,98872.00
2018-11-07T11:27:11.109Z,98871.00
2018-11-07T11:28:14.928Z,98875.00
2018-11-07T11:29:18.530Z,98872.00
2018-11-07T11:30:21.901Z,98868.00
2018-11-07T11:31:25.530Z,98872.00
2018-11-07T11:32:29.183Z,98879.00
2018-11-07T11:33:33.083Z,98879.00
2018-11-07T11:34:36.837Z,98876.00
2018-11-07T11:35:40.659Z,98879.00
2018-11-07T11:36:44.247Z,98884.00
2018-11-07T11:37:48.146Z,98882.00
2018-11-07T11:38:51.735Z,98886.00
2018-11-07T11:39:55.152Z,98885.00
2018-11-07T11:40:59.009Z,98884.00
2018-11-07T11:42:02.674Z,98886.00
2018-11-07T11:43:06.336Z,98888.00
2018-11-07T11:44:09.822Z,98896.00
2018-11-07T11:45:14.631Z,98900.00
2018-11-07T11:46:18.339Z,98894.00
2018-11-07T11:47:21.901Z,98895.00
2018-11-07T11:48:25.294Z,98892.00
2018-11-07T11:49:28.887Z,98894.00
2018-11-07T11:50:32.471Z,98891.00
2018-11-07T11:51:36.107Z,98891.00
2018-11-07T11:52:40.531Z,98895.00
2018-11-07T11:53:43.681Z,98895.00
2018-11-07T11:54:47.439Z,98895.00
2018-11-07T11:55:50.836Z,98904.00
2018-11-07T11:56:54.556Z,98896.00
2018-11-07T11:57:58.026Z,98907.00
2018-11-07T11:59:01.640Z,98902.00
2018-11-07T12:00:05.575Z,98916.00
2018-11-07T12:01:09.287Z,98910.00
2018-11-07T12:02:13.044Z,98917.00
2018-11-07T12:03:16.697Z,98917.00
2018-11-07T12:04:20.250Z,98918.00
2018-11-07T12:05:23.874Z,98923.00
2018-11-07T12:06:27.346Z,98924.00
2018-11-07T12:07:31.079Z,98919.00
2018-11-07T12:08:35.589Z,98920.00
2018-11-07T12:09:39.170Z,98928.00
2018-11-07T12:10:42.967Z,98921.00
2018-11-07T12:11:46.555Z,98922.00
2018-11-07T12:12:50.896Z,98916.00
2018-11-07T12:13:54.312Z,98913.00
2018-11-07T12:14:58.165Z,98924.00
2018-11-07T12:16:01.740Z,98908.00
2018-11-07T12:17:05.186Z,98904.00
2018-11-07T12:18:08.934Z,98907.00
2018-11-07T12:19:12.787Z,98900.00
2018-11-07T12:20:16.304Z,98909.00
2018-11-07T12:21:19.831Z,98904.00
2018-11-07T12:22:23.325Z,98898.00
2018-11-07T12:23:27.100Z,98897.00
2018-11-07T12:24:30.794Z,98897.00
2018-11-07T12:25:34.716Z,98897.00
2018-11-07T12:26:38.310Z,98893.00
2018-11-07T12:27:42.358Z,98892.00
2018-11-07T12:28:45.837Z,98897.00
2018-11-07T12:29:49.565Z,98895.00
2018-11-07T12:30:53.382Z,98897.00
2018-11-07T12:31:57.278Z,98897.00
2018-11-07T12:33:00.931Z,98897.00
2018-11-07T12:34:04.827Z,98898.00
2018-11-07T12:35:08.398Z,98901.00
2018-11-07T12:36:12.141Z,98894.00
2018-11-07T12:37:15.877Z,98894.00
2018-11-07T12:38:19.745Z,98896.00
2018-11-07T12:39:23.446Z,98898.00
2018-11-07T12:40:27.235Z,98899.00
2018-11-07T12:41:30.889Z,98900.00
2018-11-07T12:42:34.819Z,98891.00
2018-11-07T12:43:38.529Z,98897.00
2018-11-07T12:44:42.462Z,98901.00
2018-11-07T12:45:45.997Z,98897.00
2018-11-07T12:46:49.763Z,98899.00
2018-11-07T12:47:53.372Z,98902.00
2018-11-07T12:48:57.059Z,98901.00
2018-11-07T12:50:00.562Z,98890.00
2018-11-07T12:51:04.064Z,98897.00
2018-11-07T12:52:07.738Z,98896.00
2018-11-07T12:53:11.203Z,98903.00
2018-11-07T12:54:14.831Z,98905.00
2018-11-07T12:55:19.054Z,98911.00
2018-11-07T12:56:22.836Z,98910.00
2018-11-07T12:57:26.670Z,98921.00
2018-11-07T12:58:30.326Z,98908.00
2018-11-07T12:59:33.946Z,98912.00
2018-11-07T13:00:37.799Z,98917.00
2018-11-07T13:01:41.286Z,98918.00
2018-11-07T13:02:45.127Z,98921.00
2018-11-07T13:03:48.354Z,98920.00
2018-11-07T13:04:51.930Z,98918.00
2018-11-07T13:05:55.838Z,98921.00
2018-11-07T13:06:59.558Z,98923.00
2018-11-07T13:08:03.364Z,98913.00
2018-11-07T13:09:06.984Z,98910.00
2018-11-07T13:10:11.437Z,98914.00
2018-11-07T13:11:15.268Z,98921.00
2018-11-07T13:12:18.949Z,98924.00
2018-11-07T13:13:22.820Z,98925.00
2018-11-07T13:14:26.212Z,98932.00
2018-11-07T13:15:29.788Z,98931.00
2018-11-07T13:16:33.509Z,98936.00
2018-11-07T13:17:37.204Z,98927.00
2018-11-07T13:18:41.213Z,98927.00
2018-11-07T13:19:44.699Z,98932.00
2018-11-07T13:20:48.183Z,98922.00
2018-11-07T13:21:51.850Z,98930.00
2018-11-07T13:22:55.764Z,98929.00
2018-11-07T13:23:59.253Z,98928.00
2018-11-07T13:25:02.713Z,98931.00
2018-11-07T13:26:06.470Z,98931.00
2018-11-07T13:27:10.070Z,98931.00
2018-11-07T13:28:14.033Z,98940.00
2018-11-07T13:29:17.685Z,98946.00
2018-11-07T13:30:22.304Z,98936.00
2018-11-07T13:31:26.140Z,98938.00
2018-11-07T13:32:29.667Z,98945.00
2018-11-07T13:33:33.431Z,98951.00
2018-11-07T13:34:37.076Z,98950.00
2018-11-07T13:35:40.919Z,98953.00
2018-11-07T13:36:44.569Z,98952.00
2018-11-07T13:37:49.061Z,98960.00
2018-11-07T13:38:53.079Z,98964.00
2018-11-07T13:39:56.490Z,98958.00
2018-11-07T13:40:59.951Z,98955.00
2018-11-07T13:42:03.733Z,98954.00
2018-11-07T13:43:07.418Z,98961.00
2018-11-07T13:44:11.310Z,98963.00
2018-11-07T13:45:15.978Z,98961.00
2018-11-07T13:46:19.630Z,98960.00
2018-11-07T13:47:23.298Z,98959.00
2018-11-07T13:48:26.975Z,98964.00
2018-11-07T13:49:30.654Z,98963.00
2018-11-07T13:50:40.384Z,98965.00
2018-11-07T13:51:44.068Z,98968.00
2018-11-07T13:52:47.698Z,98973.00
2018-11-07T13:53:51.396Z,98987.00
2018-11-07T13:54:54.886Z,98977.00
2018-11-07T13:55:58.355Z,98972.00
2018-11-07T13:57:01.886Z,98974.00
2018-11-07T13:58:05.527Z,98986.00
2018-11-07T13:59:09.232Z,98979.00
2018-11-07T14:00:13.727Z,98982.00
2018-11-07T14:01:17.683Z,98997.00
2018-11-07T14:02:21.360Z,98996.00
2018-11-07T14:03:25.169Z,98996.00
2018-11-07T14:04:28.863Z,99006.00
2018-11-07T14:05:32.846Z,99008.00
2018-11-07T14:06:36.447Z,99011.00
2018-11-07T14:07:40.400Z,99008.00
2018-11-07T14:08:44.050Z,99013.00
2018-11-07T14:09:47.820Z,99016.00
2018-11-07T14:10:51.376Z,99024.00
2018-11-07T14:11:54.843Z,99026.00
2018-11-07T14:12:58.706Z,99031.00
2018-11-07T14:14:02.196Z,99039.00
2018-11-07T14:15:06.154Z,99039.00
2018-11-07T14:16:09.786Z,99049.00
2018-11-07T14:17:13.576Z,99048.00
2018-11-07T14:18:17.359Z,99049.00